sensor_id;sensor_type;location;lat;lon;timestamp;P1;durP1;ratioP1;P2;durP2;ratioP2
42246;SDS011;27913;42.722;23.268;2023-05-07T00:04:24;2.50;;;1.65;;
42246;SDS011;27913;42.722;23.268;2023-05-07T00:06:50;3.42;;;1.95;;
42246;SDS011;27913;42.722;23.268;2023-05-07T00:09:16;3.47;;;2.13;;
42246;SDS011;27913;42.722;23.268;2023-05-07T00:11:41;3.97;;;2.33;;
42246;SDS011;27913;42.722;23.268;2023-05-07T00:14:07;4.05;;;2.50;;
42246;SDS011;27913;42.722;23.268;2023-05-07T00:16:32;3.00;;;1.83;;
42246;SDS011;27913;42.722;23.268;2023-05-07T00:18:58;2.20;;;1.63;;
42246;SDS011;27913;42.722;23.268;2023-05-07T00:21:24;3.30;;;2.00;;
42246;SDS011;27913;42.722;23.268;2023-05-07T00:23:51;3.35;;;1.90;;
42246;SDS011;27913;42.722;23.268;2023-05-07T00:26:18;4.07;;;1.45;;
42246;SDS011;27913;42.722;23.268;2023-05-07T00:28:43;3.67;;;2.20;;
42246;SDS011;27913;42.722;23.268;2023-05-07T00:31:09;2.10;;;1.50;;
42246;SDS011;27913;42.722;23.268;2023-05-07T00:33:35;3.10;;;1.92;;
42246;SDS011;27913;42.722;23.268;2023-05-07T00:36:00;2.05;;;1.27;;
42246;SDS011;27913;42.722;23.268;2023-05-07T00:38:27;3.53;;;2.20;;
42246;SDS011;27913;42.722;23.268;2023-05-07T00:40:52;3.70;;;2.50;;
42246;SDS011;27913;42.722;23.268;2023-05-07T00:43:17;5.40;;;2.65;;
42246;SDS011;27913;42.722;23.268;2023-05-07T00:45:43;1.88;;;1.25;;
42246;SDS011;27913;42.722;23.268;2023-05-07T00:48:08;5.00;;;2.08;;
42246;SDS011;27913;42.722;23.268;2023-05-07T00:50:34;6.60;;;2.15;;
42246;SDS011;27913;42.722;23.268;2023-05-07T00:53:00;1.80;;;1.38;;
42246;SDS011;27913;42.722;23.268;2023-05-07T00:55:26;7.55;;;2.58;;
42246;SDS011;27913;42.722;23.268;2023-05-07T00:57:52;3.17;;;1.98;;
42246;SDS011;27913;42.722;23.268;2023-05-07T01:00:17;5.53;;;1.88;;
42246;SDS011;27913;42.722;23.268;2023-05-07T01:02:44;4.25;;;2.17;;
42246;SDS011;27913;42.722;23.268;2023-05-07T01:05:13;2.67;;;1.58;;
42246;SDS011;27913;42.722;23.268;2023-05-07T01:10:07;1.83;;;1.13;;
42246;SDS011;27913;42.722;23.268;2023-05-07T01:12:34;2.95;;;1.80;;
42246;SDS011;27913;42.722;23.268;2023-05-07T01:15:00;2.72;;;1.55;;
42246;SDS011;27913;42.722;23.268;2023-05-07T01:17:26;4.10;;;1.98;;
42246;SDS011;27913;42.722;23.268;2023-05-07T01:19:52;4.47;;;1.67;;
42246;SDS011;27913;42.722;23.268;2023-05-07T01:22:34;2.47;;;1.55;;
42246;SDS011;27913;42.722;23.268;2023-05-07T01:25:03;2.95;;;1.58;;
42246;SDS011;27913;42.722;23.268;2023-05-07T01:27:30;2.92;;;1.67;;
42246;SDS011;27913;42.722;23.268;2023-05-07T01:29:55;21.08;;;1.98;;
42246;SDS011;27913;42.722;23.268;2023-05-07T01:32:24;2.78;;;1.60;;
42246;SDS011;27913;42.722;23.268;2023-05-07T01:34:57;2.55;;;1.50;;
42246;SDS011;27913;42.722;23.268;2023-05-07T01:37:25;1.90;;;1.42;;
42246;SDS011;27913;42.722;23.268;2023-05-07T01:39:52;2.88;;;1.80;;
42246;SDS011;27913;42.722;23.268;2023-05-07T01:42:18;2.28;;;1.42;;
42246;SDS011;27913;42.722;23.268;2023-05-07T01:44:43;3.40;;;1.80;;
42246;SDS011;27913;42.722;23.268;2023-05-07T01:47:09;2.88;;;1.73;;
42246;SDS011;27913;42.722;23.268;2023-05-07T01:49:35;4.78;;;1.55;;
42246;SDS011;27913;42.722;23.268;2023-05-07T01:52:01;3.13;;;1.85;;
42246;SDS011;27913;42.722;23.268;2023-05-07T01:54:26;2.22;;;1.48;;
42246;SDS011;27913;42.722;23.268;2023-05-07T01:56:53;4.00;;;2.00;;
42246;SDS011;27913;42.722;23.268;2023-05-07T01:59:18;3.03;;;1.60;;
42246;SDS011;27913;42.722;23.268;2023-05-07T02:01:44;2.08;;;1.38;;
42246;SDS011;27913;42.722;23.268;2023-05-07T02:04:09;3.78;;;1.83;;
42246;SDS011;27913;42.722;23.268;2023-05-07T02:06:35;4.35;;;2.35;;
42246;SDS011;27913;42.722;23.268;2023-05-07T02:09:00;2.75;;;1.77;;
42246;SDS011;27913;42.722;23.268;2023-05-07T02:11:26;3.08;;;1.73;;
42246;SDS011;27913;42.722;23.268;2023-05-07T02:13:52;4.43;;;2.10;;
42246;SDS011;27913;42.722;23.268;2023-05-07T02:16:18;3.17;;;2.08;;
42246;SDS011;27913;42.722;23.268;2023-05-07T02:18:44;5.43;;;3.22;;
42246;SDS011;27913;42.722;23.268;2023-05-07T02:21:10;4.95;;;2.85;;
42246;SDS011;27913;42.722;23.268;2023-05-07T02:23:35;3.72;;;2.28;;
42246;SDS011;27913;42.722;23.268;2023-05-07T02:26:01;6.85;;;2.78;;
42246;SDS011;27913;42.722;23.268;2023-05-07T02:28:27;5.32;;;2.58;;
42246;SDS011;27913;42.722;23.268;2023-05-07T02:30:52;6.85;;;2.83;;
42246;SDS011;27913;42.722;23.268;2023-05-07T02:33:18;4.13;;;2.50;;
42246;SDS011;27913;42.722;23.268;2023-05-07T02:35:43;2.80;;;1.90;;
42246;SDS011;27913;42.722;23.268;2023-05-07T02:38:09;2.42;;;1.70;;
42246;SDS011;27913;42.722;23.268;2023-05-07T02:40:36;2.97;;;1.85;;
42246;SDS011;27913;42.722;23.268;2023-05-07T02:43:04;3.28;;;2.15;;
42246;SDS011;27913;42.722;23.268;2023-05-07T02:45:30;2.80;;;1.85;;
42246;SDS011;27913;42.722;23.268;2023-05-07T02:47:57;2.92;;;1.83;;
42246;SDS011;27913;42.722;23.268;2023-05-07T02:50:22;2.78;;;1.80;;
42246;SDS011;27913;42.722;23.268;2023-05-07T02:52:48;2.67;;;1.73;;
42246;SDS011;27913;42.722;23.268;2023-05-07T02:55:13;3.65;;;1.92;;
42246;SDS011;27913;42.722;23.268;2023-05-07T02:57:38;5.25;;;2.35;;
42246;SDS011;27913;42.722;23.268;2023-05-07T03:00:11;2.65;;;1.50;;
42246;SDS011;27913;42.722;23.268;2023-05-07T03:02:40;3.42;;;2.08;;
42246;SDS011;27913;42.722;23.268;2023-05-07T03:05:06;2.50;;;1.58;;
42246;SDS011;27913;42.722;23.268;2023-05-07T03:07:32;2.25;;;1.50;;
42246;SDS011;27913;42.722;23.268;2023-05-07T03:09:58;17.48;;;1.95;;
42246;SDS011;27913;42.722;23.268;2023-05-07T03:12:23;3.05;;;1.55;;
42246;SDS011;27913;42.722;23.268;2023-05-07T03:14:49;2.42;;;1.50;;
42246;SDS011;27913;42.722;23.268;2023-05-07T03:17:14;2.80;;;1.80;;
42246;SDS011;27913;42.722;23.268;2023-05-07T03:19:41;2.13;;;1.50;;
42246;SDS011;27913;42.722;23.268;2023-05-07T03:22:06;3.20;;;1.42;;
42246;SDS011;27913;42.722;23.268;2023-05-07T03:24:32;3.47;;;2.08;;
42246;SDS011;27913;42.722;23.268;2023-05-07T03:26:57;5.25;;;1.45;;
42246;SDS011;27913;42.722;23.268;2023-05-07T03:29:23;2.65;;;1.75;;
42246;SDS011;27913;42.722;23.268;2023-05-07T03:31:48;1.77;;;1.25;;
42246;SDS011;27913;42.722;23.268;2023-05-07T03:34:14;3.00;;;2.03;;
42246;SDS011;27913;42.722;23.268;2023-05-07T03:36:40;3.88;;;2.00;;
42246;SDS011;27913;42.722;23.268;2023-05-07T03:39:05;4.40;;;2.55;;
42246;SDS011;27913;42.722;23.268;2023-05-07T03:43:26;3.33;;;1.77;;
42246;SDS011;27913;42.722;23.268;2023-05-07T03:45:52;2.28;;;1.50;;
42246;SDS011;27913;42.722;23.268;2023-05-07T03:48:17;2.08;;;1.25;;
42246;SDS011;27913;42.722;23.268;2023-05-07T03:50:43;2.60;;;1.30;;
42246;SDS011;27913;42.722;23.268;2023-05-07T03:53:08;5.25;;;2.88;;
42246;SDS011;27913;42.722;23.268;2023-05-07T03:55:34;2.30;;;1.83;;
42246;SDS011;27913;42.722;23.268;2023-05-07T03:58:00;3.03;;;1.80;;
42246;SDS011;27913;42.722;23.268;2023-05-07T04:00:26;3.38;;;1.92;;
42246;SDS011;27913;42.722;23.268;2023-05-07T04:02:51;4.03;;;2.40;;
42246;SDS011;27913;42.722;23.268;2023-05-07T04:05:16;4.32;;;2.47;;
42246;SDS011;27913;42.722;23.268;2023-05-07T04:07:42;2.63;;;1.65;;
42246;SDS011;27913;42.722;23.268;2023-05-07T04:10:07;3.40;;;2.13;;
42246;SDS011;27913;42.722;23.268;2023-05-07T04:12:33;2.90;;;1.95;;
42246;SDS011;27913;42.722;23.268;2023-05-07T04:14:59;2.45;;;1.73;;
42246;SDS011;27913;42.722;23.268;2023-05-07T04:17:24;3.78;;;1.98;;
42246;SDS011;27913;42.722;23.268;2023-05-07T04:19:50;3.63;;;2.17;;
42246;SDS011;27913;42.722;23.268;2023-05-07T04:22:15;16.58;;;2.30;;
42246;SDS011;27913;42.722;23.268;2023-05-07T04:25:31;4.45;;;2.25;;
42246;SDS011;27913;42.722;23.268;2023-05-07T04:27:57;3.28;;;1.88;;
42246;SDS011;27913;42.722;23.268;2023-05-07T04:30:22;2.47;;;1.52;;
42246;SDS011;27913;42.722;23.268;2023-05-07T04:32:48;2.95;;;1.63;;
42246;SDS011;27913;42.722;23.268;2023-05-07T04:35:13;6.65;;;2.53;;
42246;SDS011;27913;42.722;23.268;2023-05-07T04:37:39;3.70;;;2.33;;
42246;SDS011;27913;42.722;23.268;2023-05-07T04:40:05;4.40;;;2.17;;
42246;SDS011;27913;42.722;23.268;2023-05-07T04:42:31;2.42;;;1.40;;
42246;SDS011;27913;42.722;23.268;2023-05-07T04:44:57;4.05;;;2.38;;
42246;SDS011;27913;42.722;23.268;2023-05-07T04:47:22;3.70;;;1.92;;
42246;SDS011;27913;42.722;23.268;2023-05-07T04:49:48;5.22;;;2.20;;
42246;SDS011;27913;42.722;23.268;2023-05-07T04:52:13;6.65;;;2.05;;
42246;SDS011;27913;42.722;23.268;2023-05-07T04:54:39;3.33;;;1.80;;
42246;SDS011;27913;42.722;23.268;2023-05-07T04:57:04;2.58;;;1.60;;
42246;SDS011;27913;42.722;23.268;2023-05-07T04:59:30;1.95;;;1.25;;
42246;SDS011;27913;42.722;23.268;2023-05-07T05:01:55;3.80;;;1.85;;
42246;SDS011;27913;42.722;23.268;2023-05-07T05:04:22;2.88;;;1.77;;
42246;SDS011;27913;42.722;23.268;2023-05-07T05:06:48;3.33;;;1.77;;
42246;SDS011;27913;42.722;23.268;2023-05-07T05:09:13;3.28;;;1.83;;
42246;SDS011;27913;42.722;23.268;2023-05-07T05:11:39;2.75;;;1.77;;
42246;SDS011;27913;42.722;23.268;2023-05-07T05:14:04;3.00;;;1.88;;
42246;SDS011;27913;42.722;23.268;2023-05-07T05:16:30;3.92;;;2.22;;
42246;SDS011;27913;42.722;23.268;2023-05-07T05:18:56;4.22;;;2.67;;
42246;SDS011;27913;42.722;23.268;2023-05-07T05:21:21;2.75;;;2.00;;
42246;SDS011;27913;42.722;23.268;2023-05-07T05:23:46;7.75;;;3.55;;
42246;SDS011;27913;42.722;23.268;2023-05-07T05:26:12;4.95;;;2.72;;
42246;SDS011;27913;42.722;23.268;2023-05-07T05:28:37;4.43;;;2.78;;
42246;SDS011;27913;42.722;23.268;2023-05-07T05:31:04;2.17;;;1.35;;
42246;SDS011;27913;42.722;23.268;2023-05-07T05:33:30;4.80;;;2.28;;
42246;SDS011;27913;42.722;23.268;2023-05-07T05:35:55;3.53;;;2.28;;
42246;SDS011;27913;42.722;23.268;2023-05-07T05:38:20;7.53;;;2.65;;
42246;SDS011;27913;42.722;23.268;2023-05-07T05:40:46;3.97;;;2.17;;
42246;SDS011;27913;42.722;23.268;2023-05-07T05:43:12;3.90;;;2.17;;
42246;SDS011;27913;42.722;23.268;2023-05-07T05:45:38;4.70;;;2.60;;
42246;SDS011;27913;42.722;23.268;2023-05-07T05:48:04;5.95;;;2.95;;
42246;SDS011;27913;42.722;23.268;2023-05-07T05:50:30;2.90;;;1.92;;
42246;SDS011;27913;42.722;23.268;2023-05-07T05:52:55;3.50;;;2.33;;
42246;SDS011;27913;42.722;23.268;2023-05-07T05:55:21;6.72;;;2.08;;
42246;SDS011;27913;42.722;23.268;2023-05-07T05:57:47;3.45;;;2.40;;
42246;SDS011;27913;42.722;23.268;2023-05-07T06:00:13;4.82;;;2.92;;
42246;SDS011;27913;42.722;23.268;2023-05-07T06:02:39;3.25;;;2.13;;
42246;SDS011;27913;42.722;23.268;2023-05-07T06:05:04;8.05;;;3.20;;
42246;SDS011;27913;42.722;23.268;2023-05-07T06:07:30;5.57;;;3.15;;
42246;SDS011;27913;42.722;23.268;2023-05-07T06:09:56;5.97;;;2.50;;
42246;SDS011;27913;42.722;23.268;2023-05-07T06:12:21;6.78;;;3.13;;
42246;SDS011;27913;42.722;23.268;2023-05-07T06:14:47;4.32;;;2.20;;
42246;SDS011;27913;42.722;23.268;2023-05-07T06:17:12;2.80;;;1.92;;
42246;SDS011;27913;42.722;23.268;2023-05-07T06:19:37;5.80;;;3.42;;
42246;SDS011;27913;42.722;23.268;2023-05-07T06:22:03;4.10;;;2.75;;
42246;SDS011;27913;42.722;23.268;2023-05-07T06:24:29;4.53;;;2.70;;
42246;SDS011;27913;42.722;23.268;2023-05-07T06:26:54;4.55;;;2.92;;
42246;SDS011;27913;42.722;23.268;2023-05-07T06:29:20;4.20;;;2.90;;
42246;SDS011;27913;42.722;23.268;2023-05-07T06:31:46;3.80;;;2.40;;
42246;SDS011;27913;42.722;23.268;2023-05-07T06:34:11;5.05;;;3.08;;
42246;SDS011;27913;42.722;23.268;2023-05-07T06:36:40;4.78;;;2.85;;
42246;SDS011;27913;42.722;23.268;2023-05-07T06:39:06;3.05;;;2.03;;
42246;SDS011;27913;42.722;23.268;2023-05-07T06:41:31;4.75;;;2.78;;
42246;SDS011;27913;42.722;23.268;2023-05-07T06:43:57;4.47;;;2.92;;
42246;SDS011;27913;42.722;23.268;2023-05-07T06:46:22;7.85;;;3.80;;
42246;SDS011;27913;42.722;23.268;2023-05-07T06:48:48;5.00;;;3.05;;
42246;SDS011;27913;42.722;23.268;2023-05-07T06:51:13;4.97;;;3.22;;
42246;SDS011;27913;42.722;23.268;2023-05-07T06:53:39;4.00;;;2.45;;
42246;SDS011;27913;42.722;23.268;2023-05-07T06:58:13;3.20;;;2.38;;
42246;SDS011;27913;42.722;23.268;2023-05-07T07:00:39;4.10;;;2.35;;
42246;SDS011;27913;42.722;23.268;2023-05-07T07:03:05;4.95;;;3.25;;
42246;SDS011;27913;42.722;23.268;2023-05-07T07:05:31;3.58;;;2.35;;
42246;SDS011;27913;42.722;23.268;2023-05-07T07:07:57;3.33;;;2.35;;
42246;SDS011;27913;42.722;23.268;2023-05-07T07:10:22;7.80;;;3.80;;
42246;SDS011;27913;42.722;23.268;2023-05-07T07:12:48;4.60;;;3.13;;
42246;SDS011;27913;42.722;23.268;2023-05-07T07:15:14;5.75;;;3.47;;
42246;SDS011;27913;42.722;23.268;2023-05-07T07:17:40;6.38;;;2.38;;
42246;SDS011;27913;42.722;23.268;2023-05-07T07:20:06;4.13;;;2.90;;
42246;SDS011;27913;42.722;23.268;2023-05-07T07:22:32;4.38;;;2.97;;
42246;SDS011;27913;42.722;23.268;2023-05-07T07:24:57;4.25;;;2.70;;
42246;SDS011;27913;42.722;23.268;2023-05-07T07:27:23;4.07;;;2.35;;
42246;SDS011;27913;42.722;23.268;2023-05-07T07:29:48;4.25;;;2.60;;
42246;SDS011;27913;42.722;23.268;2023-05-07T07:32:14;4.15;;;2.78;;
42246;SDS011;27913;42.722;23.268;2023-05-07T07:34:39;12.73;;;3.47;;
42246;SDS011;27913;42.722;23.268;2023-05-07T07:37:05;5.28;;;2.38;;
42246;SDS011;27913;42.722;23.268;2023-05-07T07:39:34;11.30;;;3.80;;
42246;SDS011;27913;42.722;23.268;2023-05-07T07:42:00;8.88;;;2.88;;
42246;SDS011;27913;42.722;23.268;2023-05-07T07:44:27;5.38;;;2.72;;
42246;SDS011;27913;42.722;23.268;2023-05-07T07:46:53;3.58;;;2.10;;
42246;SDS011;27913;42.722;23.268;2023-05-07T07:49:18;3.53;;;2.13;;
42246;SDS011;27913;42.722;23.268;2023-05-07T07:51:44;3.15;;;2.10;;
42246;SDS011;27913;42.722;23.268;2023-05-07T07:54:09;2.67;;;1.67;;
42246;SDS011;27913;42.722;23.268;2023-05-07T07:56:35;3.85;;;2.38;;
42246;SDS011;27913;42.722;23.268;2023-05-07T07:59:01;3.55;;;2.03;;
42246;SDS011;27913;42.722;23.268;2023-05-07T08:01:27;3.45;;;2.17;;
42246;SDS011;27913;42.722;23.268;2023-05-07T08:03:54;3.35;;;1.90;;
42246;SDS011;27913;42.722;23.268;2023-05-07T08:06:20;3.90;;;2.55;;
42246;SDS011;27913;42.722;23.268;2023-05-07T08:08:46;3.47;;;2.33;;
42246;SDS011;27913;42.722;23.268;2023-05-07T08:11:11;2.22;;;1.42;;
42246;SDS011;27913;42.722;23.268;2023-05-07T08:13:37;2.60;;;1.80;;
42246;SDS011;27913;42.722;23.268;2023-05-07T08:16:03;4.45;;;1.70;;
42246;SDS011;27913;42.722;23.268;2023-05-07T08:18:29;8.18;;;2.45;;
42246;SDS011;27913;42.722;23.268;2023-05-07T08:20:55;6.82;;;3.58;;
42246;SDS011;27913;42.722;23.268;2023-05-07T08:23:21;5.95;;;3.05;;
42246;SDS011;27913;42.722;23.268;2023-05-07T08:25:47;6.53;;;1.88;;
42246;SDS011;27913;42.722;23.268;2023-05-07T08:28:13;2.88;;;2.10;;
42246;SDS011;27913;42.722;23.268;2023-05-07T08:30:38;3.58;;;2.05;;
42246;SDS011;27913;42.722;23.268;2023-05-07T08:33:04;5.55;;;2.72;;
42246;SDS011;27913;42.722;23.268;2023-05-07T08:35:29;3.88;;;2.25;;
42246;SDS011;27913;42.722;23.268;2023-05-07T08:37:55;3.35;;;2.00;;
42246;SDS011;27913;42.722;23.268;2023-05-07T08:40:22;3.42;;;2.08;;
42246;SDS011;27913;42.722;23.268;2023-05-07T08:42:53;4.80;;;2.50;;
42246;SDS011;27913;42.722;23.268;2023-05-07T08:45:19;5.88;;;3.33;;
42246;SDS011;27913;42.722;23.268;2023-05-07T08:47:52;4.68;;;2.80;;
42246;SDS011;27913;42.722;23.268;2023-05-07T08:50:25;4.93;;;2.25;;
42246;SDS011;27913;42.722;23.268;2023-05-07T08:52:50;3.15;;;2.15;;
42246;SDS011;27913;42.722;23.268;2023-05-07T08:55:16;2.33;;;1.58;;
42246;SDS011;27913;42.722;23.268;2023-05-07T08:57:42;3.33;;;2.08;;
42246;SDS011;27913;42.722;23.268;2023-05-07T09:00:08;3.20;;;1.77;;
42246;SDS011;27913;42.722;23.268;2023-05-07T09:02:35;3.90;;;1.90;;
42246;SDS011;27913;42.722;23.268;2023-05-07T09:05:01;2.78;;;1.63;;
42246;SDS011;27913;42.722;23.268;2023-05-07T09:07:26;4.57;;;2.20;;
42246;SDS011;27913;42.722;23.268;2023-05-07T09:09:52;2.70;;;1.70;;
42246;SDS011;27913;42.722;23.268;2023-05-07T09:12:20;3.13;;;1.77;;
42246;SDS011;27913;42.722;23.268;2023-05-07T09:14:46;4.45;;;1.70;;
42246;SDS011;27913;42.722;23.268;2023-05-07T09:17:12;3.42;;;1.92;;
42246;SDS011;27913;42.722;23.268;2023-05-07T09:19:38;1.67;;;1.27;;
42246;SDS011;27913;42.722;23.268;2023-05-07T09:22:04;2.45;;;1.63;;
42246;SDS011;27913;42.722;23.268;2023-05-07T09:24:32;4.10;;;2.00;;
42246;SDS011;27913;42.722;23.268;2023-05-07T09:27:02;3.03;;;1.60;;
42246;SDS011;27913;42.722;23.268;2023-05-07T09:29:31;2.00;;;1.20;;
42246;SDS011;27913;42.722;23.268;2023-05-07T09:32:04;3.00;;;1.27;;
42246;SDS011;27913;42.722;23.268;2023-05-07T09:34:30;2.63;;;1.10;;
42246;SDS011;27913;42.722;23.268;2023-05-07T09:36:58;2.22;;;1.20;;
42246;SDS011;27913;42.722;23.268;2023-05-07T09:39:25;1.48;;;1.00;;
42246;SDS011;27913;42.722;23.268;2023-05-07T09:41:51;1.23;;;0.80;;
42246;SDS011;27913;42.722;23.268;2023-05-07T09:44:19;0.60;;;0.52;;
42246;SDS011;27913;42.722;23.268;2023-05-07T09:46:45;4.95;;;1.60;;
42246;SDS011;27913;42.722;23.268;2023-05-07T09:49:18;2.05;;;1.20;;
42246;SDS011;27913;42.722;23.268;2023-05-07T09:51:50;1.10;;;0.90;;
42246;SDS011;27913;42.722;23.268;2023-05-07T09:54:17;3.75;;;1.05;;
42246;SDS011;27913;42.722;23.268;2023-05-07T09:56:43;2.15;;;0.98;;
42246;SDS011;27913;42.722;23.268;2023-05-07T09:59:10;1.48;;;0.98;;
42246;SDS011;27913;42.722;23.268;2023-05-07T10:01:38;1.30;;;0.80;;
42246;SDS011;27913;42.722;23.268;2023-05-07T10:04:06;1.45;;;0.90;;
42246;SDS011;27913;42.722;23.268;2023-05-07T10:06:34;2.83;;;1.42;;
42246;SDS011;27913;42.722;23.268;2023-05-07T10:09:00;1.15;;;0.75;;
42246;SDS011;27913;42.722;23.268;2023-05-07T10:11:27;3.10;;;1.40;;
42246;SDS011;27913;42.722;23.268;2023-05-07T10:13:53;3.05;;;1.00;;
42246;SDS011;27913;42.722;23.268;2023-05-07T10:16:20;1.23;;;0.93;;
42246;SDS011;27913;42.722;23.268;2023-05-07T10:18:46;0.90;;;0.73;;
42246;SDS011;27913;42.722;23.268;2023-05-07T10:21:17;0.73;;;0.63;;
42246;SDS011;27913;42.722;23.268;2023-05-07T10:23:49;1.48;;;0.90;;
42246;SDS011;27913;42.722;23.268;2023-05-07T10:26:17;2.20;;;1.60;;
42246;SDS011;27913;42.722;23.268;2023-05-07T10:28:44;1.70;;;0.90;;
42246;SDS011;27913;42.722;23.268;2023-05-07T10:34:14;1.05;;;0.82;;
42246;SDS011;27913;42.722;23.268;2023-05-07T10:36:45;1.05;;;0.85;;
42246;SDS011;27913;42.722;23.268;2023-05-07T10:39:11;0.80;;;0.63;;
42246;SDS011;27913;42.722;23.268;2023-05-07T10:41:38;2.20;;;0.93;;
42246;SDS011;27913;42.722;23.268;2023-05-07T10:44:04;2.97;;;1.17;;
42246;SDS011;27913;42.722;23.268;2023-05-07T10:46:29;1.83;;;1.00;;
42246;SDS011;27913;42.722;23.268;2023-05-07T10:51:31;1.98;;;1.25;;
42246;SDS011;27913;42.722;23.268;2023-05-07T10:56:35;1.27;;;0.90;;
42246;SDS011;27913;42.722;23.268;2023-05-07T11:01:57;1.40;;;0.90;;
42246;SDS011;27913;42.722;23.268;2023-05-07T11:04:24;2.15;;;1.77;;
42246;SDS011;27913;42.722;23.268;2023-05-07T11:15:01;0.82;;;0.63;;
42246;SDS011;27913;42.722;23.268;2023-05-07T11:17:52;1.70;;;0.95;;
42246;SDS011;27913;42.722;23.268;2023-05-07T11:20:19;1.52;;;0.95;;
42246;SDS011;27913;42.722;23.268;2023-05-07T11:22:45;1.48;;;0.90;;
42246;SDS011;27913;42.722;23.268;2023-05-07T11:25:11;0.98;;;0.77;;
42246;SDS011;27913;42.722;23.268;2023-05-07T11:27:43;0.88;;;0.70;;
42246;SDS011;27913;42.722;23.268;2023-05-07T11:30:09;1.05;;;0.80;;
42246;SDS011;27913;42.722;23.268;2023-05-07T11:32:35;0.73;;;0.60;;
42246;SDS011;27913;42.722;23.268;2023-05-07T11:35:01;2.28;;;0.68;;
42246;SDS011;27913;42.722;23.268;2023-05-07T11:37:27;0.88;;;0.68;;
42246;SDS011;27913;42.722;23.268;2023-05-07T11:40:07;5.97;;;5.45;;
42246;SDS011;27913;42.722;23.268;2023-05-07T11:42:36;1.80;;;1.08;;
42246;SDS011;27913;42.722;23.268;2023-05-07T11:45:03;1.08;;;0.90;;
42246;SDS011;27913;42.722;23.268;2023-05-07T11:47:30;1.77;;;1.20;;
42246;SDS011;27913;42.722;23.268;2023-05-07T11:49:56;0.65;;;0.60;;
42246;SDS011;27913;42.722;23.268;2023-05-07T11:52:27;2.08;;;0.98;;
42246;SDS011;27913;42.722;23.268;2023-05-07T11:54:52;0.85;;;0.57;;
42246;SDS011;27913;42.722;23.268;2023-05-07T11:57:23;1.42;;;0.80;;
42246;SDS011;27913;42.722;23.268;2023-05-07T11:59:59;3.53;;;0.80;;
42246;SDS011;27913;42.722;23.268;2023-05-07T12:02:27;2.78;;;2.55;;
42246;SDS011;27913;42.722;23.268;2023-05-07T12:04:53;0.32;;;0.30;;
42246;SDS011;27913;42.722;23.268;2023-05-07T12:07:19;0.73;;;0.52;;
42246;SDS011;27913;42.722;23.268;2023-05-07T12:09:45;0.47;;;0.38;;
42246;SDS011;27913;42.722;23.268;2023-05-07T12:12:12;0.82;;;0.60;;
42246;SDS011;27913;42.722;23.268;2023-05-07T12:14:44;0.93;;;0.60;;
42246;SDS011;27913;42.722;23.268;2023-05-07T12:17:11;1.10;;;0.60;;
42246;SDS011;27913;42.722;23.268;2023-05-07T12:19:39;0.82;;;0.60;;
42246;SDS011;27913;42.722;23.268;2023-05-07T12:22:10;1.40;;;0.80;;
42246;SDS011;27913;42.722;23.268;2023-05-07T12:24:49;0.90;;;0.70;;
42246;SDS011;27913;42.722;23.268;2023-05-07T12:27:21;3.45;;;1.10;;
42246;SDS011;27913;42.722;23.268;2023-05-07T12:29:47;1.40;;;0.98;;
42246;SDS011;27913;42.722;23.268;2023-05-07T12:32:13;1.00;;;0.70;;
42246;SDS011;27913;42.722;23.268;2023-05-07T12:34:40;2.35;;;1.02;;
42246;SDS011;27913;42.722;23.268;2023-05-07T12:37:05;0.95;;;0.70;;
42246;SDS011;27913;42.722;23.268;2023-05-07T12:39:32;2.38;;;1.17;;
42246;SDS011;27913;42.722;23.268;2023-05-07T12:41:58;1.10;;;0.80;;
42246;SDS011;27913;42.722;23.268;2023-05-07T12:44:34;1.67;;;1.15;;
42246;SDS011;27913;42.722;23.268;2023-05-07T12:47:03;2.80;;;0.73;;
42246;SDS011;27913;42.722;23.268;2023-05-07T12:49:28;0.70;;;0.57;;
42246;SDS011;27913;42.722;23.268;2023-05-07T12:51:54;1.45;;;0.82;;
42246;SDS011;27913;42.722;23.268;2023-05-07T12:54:30;2.13;;;0.90;;
42246;SDS011;27913;42.722;23.268;2023-05-07T12:57:06;1.65;;;1.02;;
42246;SDS011;27913;42.722;23.268;2023-05-07T12:59:33;1.23;;;0.95;;
42246;SDS011;27913;42.722;23.268;2023-05-07T13:02:03;1.58;;;0.98;;
42246;SDS011;27913;42.722;23.268;2023-05-07T13:04:29;2.00;;;1.00;;
42246;SDS011;27913;42.722;23.268;2023-05-07T13:06:55;2.20;;;1.27;;
42246;SDS011;27913;42.722;23.268;2023-05-07T13:09:20;1.60;;;0.68;;
42246;SDS011;27913;42.722;23.268;2023-05-07T13:11:45;2.08;;;0.80;;
42246;SDS011;27913;42.722;23.268;2023-05-07T13:14:11;0.50;;;0.43;;
42246;SDS011;27913;42.722;23.268;2023-05-07T13:16:37;1.23;;;0.70;;
42246;SDS011;27913;42.722;23.268;2023-05-07T13:19:02;2.03;;;1.10;;
42246;SDS011;27913;42.722;23.268;2023-05-07T13:21:28;1.33;;;0.68;;
42246;SDS011;27913;42.722;23.268;2023-05-07T13:23:56;1.02;;;0.65;;
42246;SDS011;27913;42.722;23.268;2023-05-07T13:26:23;1.15;;;0.70;;
42246;SDS011;27913;42.722;23.268;2023-05-07T13:28:48;1.98;;;1.20;;
42246;SDS011;27913;42.722;23.268;2023-05-07T13:31:14;0.98;;;0.65;;
42246;SDS011;27913;42.722;23.268;2023-05-07T13:33:39;1.35;;;0.77;;
42246;SDS011;27913;42.722;23.268;2023-05-07T13:36:05;0.80;;;0.60;;
42246;SDS011;27913;42.722;23.268;2023-05-07T13:38:31;1.67;;;0.70;;
42246;SDS011;27913;42.722;23.268;2023-05-07T13:40:56;2.65;;;1.08;;
42246;SDS011;27913;42.722;23.268;2023-05-07T13:43:22;1.23;;;0.80;;
42246;SDS011;27913;42.722;23.268;2023-05-07T13:45:47;2.45;;;1.00;;
42246;SDS011;27913;42.722;23.268;2023-05-07T13:48:13;1.67;;;1.00;;
42246;SDS011;27913;42.722;23.268;2023-05-07T13:50:38;1.95;;;1.00;;
42246;SDS011;27913;42.722;23.268;2023-05-07T13:53:03;1.55;;;1.23;;
42246;SDS011;27913;42.722;23.268;2023-05-07T13:55:30;5.05;;;4.65;;
42246;SDS011;27913;42.722;23.268;2023-05-07T13:57:59;1.90;;;0.88;;
42246;SDS011;27913;42.722;23.268;2023-05-07T14:00:25;1.60;;;0.93;;
42246;SDS011;27913;42.722;23.268;2023-05-07T14:02:52;0.57;;;0.57;;
42246;SDS011;27913;42.722;23.268;2023-05-07T14:05:19;3.70;;;1.08;;
42246;SDS011;27913;42.722;23.268;2023-05-07T14:07:44;3.42;;;3.13;;
42246;SDS011;27913;42.722;23.268;2023-05-07T14:10:10;3.30;;;3.00;;
42246;SDS011;27913;42.722;23.268;2023-05-07T14:12:36;2.85;;;1.05;;
42246;SDS011;27913;42.722;23.268;2023-05-07T14:15:02;1.27;;;0.82;;
42246;SDS011;27913;42.722;23.268;2023-05-07T14:17:28;0.60;;;0.60;;
42246;SDS011;27913;42.722;23.268;2023-05-07T14:19:54;1.90;;;1.15;;
42246;SDS011;27913;42.722;23.268;2023-05-07T14:22:22;1.48;;;0.95;;
42246;SDS011;27913;42.722;23.268;2023-05-07T14:24:48;1.20;;;0.90;;
42246;SDS011;27913;42.722;23.268;2023-05-07T14:27:15;1.40;;;1.00;;
42246;SDS011;27913;42.722;23.268;2023-05-07T14:29:40;2.45;;;0.98;;
42246;SDS011;27913;42.722;23.268;2023-05-07T14:32:06;2.25;;;0.90;;
42246;SDS011;27913;42.722;23.268;2023-05-07T14:34:31;0.95;;;0.90;;
42246;SDS011;27913;42.722;23.268;2023-05-07T14:36:57;5.80;;;5.32;;
42246;SDS011;27913;42.722;23.268;2023-05-07T14:39:23;5.38;;;4.88;;
42246;SDS011;27913;42.722;23.268;2023-05-07T14:41:48;4.90;;;4.38;;
42246;SDS011;27913;42.722;23.268;2023-05-07T14:44:14;1.52;;;1.20;;
42246;SDS011;27913;42.722;23.268;2023-05-07T14:46:40;1.90;;;1.20;;
42246;SDS011;27913;42.722;23.268;2023-05-07T14:49:05;2.38;;;1.10;;
42246;SDS011;27913;42.722;23.268;2023-05-07T14:51:31;0.63;;;0.50;;
42246;SDS011;27913;42.722;23.268;2023-05-07T14:53:58;1.13;;;0.90;;
42246;SDS011;27913;42.722;23.268;2023-05-07T14:56:23;0.70;;;0.60;;
42246;SDS011;27913;42.722;23.268;2023-05-07T14:58:48;1.52;;;1.05;;